Flight Track Log - Related Links

Times and Time Zones

All times are in EDT time to prevent confusion due to time zone crossing. See the RPA3143 flight status page for this flight to view local times or setup timezone preferences in your user account.

Time Position Orientation Groundspeed Altitude Reporting Facility
EDT Latitude Longitude Course Direction KTS MPH feet Rate Location/Type
Wed 08:03:43 AM 38.8833 -77.0500 233° Southwest 142 163 1,600  Level Potomac TRACON
Wed 08:04:43 AM 38.9167 -77.1000 311° West 206 237 3,100 2,050 Climbing Potomac TRACON
Wed 08:05:43 AM 38.9667 -77.1500 322° Northwest 239 275 5,700 2,526 Climbing Potomac TRACON
Wed 08:06:00 AM 38.5525 -77.3642 218° Southwest  Level FlightAware Approximate
Wed 08:06:37 AM 38.9667 -77.2167 270° West 271 312 7,900  Level Potomac TRACON
Wed 08:07:00 AM 38.4789 -77.4534 225° Southwest  Level FlightAware Approximate
Wed 08:07:37 AM 38.9000 -77.2667 210° Southwest 274 315 10,800  Level Potomac TRACON
Wed 08:08:00 AM 38.4043 -77.5395 201° Southwest  Level FlightAware Approximate
Wed 08:08:38 AM 38.8333 -77.3167 210° Southwest 311 358 12,600  Level Potomac TRACON
Wed 08:09:00 AM 38.3353 -77.6301 233° Southwest  Level FlightAware Approximate
Wed 08:09:32 AM 38.7500 -77.3500 197° South 329 379 14,700  Level Potomac TRACON
Wed 08:11:51 AM 38.5833 -77.5067 216° Southwest 344 396 19,200 1,930 Climbing Washington Center
Wed 08:12:51 AM 38.5111 -77.5897 222° Southwest 344 396 21,100 1,983 Climbing Washington Center
Wed 08:13:49 AM 38.4325 -77.6803 222° Southwest 349 402 23,100 1,765 Climbing Washington Center
Wed 08:14:50 AM 38.3581 -77.7628 221° Southwest 349 402 24,600 1,525 Climbing Washington Center
Wed 08:15:51 AM 38.2833 -77.8506 223° Southwest 355 409 26,200 1,180 Climbing Washington Center
Wed 08:16:52 AM 38.2044 -77.9381 221° Southwest 366 421 27,000 407 Climbing Washington Center
Wed 08:17:49 AM 38.1278 -78.0256 222° Southwest 371 427 27,000  Level Washington Center
Wed 08:18:51 AM 38.0508 -78.1128 222° Southwest 371 427 27,000  Level Washington Center
Wed 08:19:49 AM 37.9825 -78.1894 221° Southwest 364 419 27,000 101 Level Washington Center
Wed 08:20:50 AM 37.8908 -78.2758 217° Southwest 369 425 27,200 694 Climbing Washington Center
Wed 08:21:50 AM 37.8056 -78.3569 217° Southwest 374 430 28,400 1,100 Climbing Washington Center
Wed 08:22:50 AM 37.7203 -78.4378 217° Southwest 379 436 29,400 793 Climbing Washington Center
Wed 08:23:51 AM 37.6328 -78.5158 215° Southwest 379 436 30,000 706 Climbing Washington Center
Wed 08:24:49 AM 37.5517 -78.5964 218° Southwest 398 458 30,800 763 Climbing Washington Center
Wed 08:25:49 AM 37.4597 -78.6792 216° Southwest 404 465 31,500 836 Climbing Washington Center
Wed 08:26:51 AM 37.3678 -78.7669 217° Southwest 409 471 32,500 885 Climbing Washington Center
Wed 08:27:51 AM 37.2717 -78.8517 215° Southwest 414 476 33,300 763 Climbing Washington Center
Wed 08:28:49 AM 37.1711 -78.9464 217° Southwest 414 476 34,000 356 Climbing Washington Center
Wed 08:29:49 AM 37.0789 -79.0308 216° Southwest 414 476 34,000  Level Washington Center
Wed 08:30:50 AM 36.9867 -79.1178 217° Southwest 414 476 34,000  Level Washington Center
Wed 08:31:50 AM 36.8986 -79.1994 217° Southwest 414 476 34,000  Level Washington Center
Wed 08:32:51 AM 36.8086 -79.2808 216° Southwest 414 476 34,000  Level Washington Center
Wed 08:33:49 AM 36.7292 -79.3547 217° Southwest 414 476 34,000  Level Washington Center
Wed 08:34:50 AM 36.6281 -79.4483 217° Southwest 414 476 34,000  Level Washington Center
Wed 08:35:50 AM 36.5486 -79.5194 216° Southwest 409 471 34,000  Level Washington Center
Wed 08:37:29 AM 36.3850 -79.6650 216° Southwest 406 467 34,000  Level Atlanta Center
Wed 08:38:29 AM 36.3042 -79.7414 217° Southwest 406 467 34,000  Level Atlanta Center
Wed 08:39:29 AM 36.2111 -79.8236 215° Southwest 411 473 34,000  Level Atlanta Center
Wed 08:40:29 AM 36.1200 -79.9056 216° Southwest 416 479 34,000  Level Atlanta Center
Wed 08:41:29 AM 36.0267 -79.9822 214° Southwest 416 479 34,000  Level Atlanta Center
Wed 08:42:29 AM 35.9097 -80.0417 202° Southwest 416 479 34,000  Level Atlanta Center
Wed 08:43:29 AM 35.8031 -80.0983 203° Southwest 416 479 34,000  Level Atlanta Center
Wed 08:44:29 AM 35.6942 -80.1494 201° Southwest 416 479 34,000  Level Atlanta Center
Wed 08:45:29 AM 35.5853 -80.2058 203° Southwest 421 484 34,000  Level Atlanta Center
Wed 08:46:29 AM 35.4767 -80.2619 203° Southwest 426 490 34,000  Level Atlanta Center
Wed 08:47:29 AM 35.3800 -80.3122 203° Southwest 426 490 34,000  Level Atlanta Center
Wed 08:48:29 AM 35.2692 -80.3681 202° Southwest 426 490 34,000  Level Atlanta Center
Wed 08:49:29 AM 35.1600 -80.4211 202° Southwest 426 490 34,000  Level Atlanta Center
Wed 08:50:29 AM 35.0489 -80.4742 201° Southwest 426 490 34,000  Level Atlanta Center
Wed 08:51:29 AM 34.9419 -80.5294 203° Southwest 426 490 34,000  Level Atlanta Center
Wed 08:53:41 AM 34.6908 -80.6581 203° Southwest 421 484 34,000  Level Jacksonville Center
Wed 08:54:41 AM 34.5789 -80.7089 201° Southwest 427 491 34,000  Level Jacksonville Center
Wed 08:55:41 AM 34.4628 -80.7419 193° South 437 503 34,000  Level Jacksonville Center
Wed 08:56:41 AM 34.3422 -80.7675 190° South 432 497 34,000 -50 Level Jacksonville Center
Wed 08:57:41 AM 34.2342 -80.7878 189° South 424 488 33,900  Descending Jacksonville Center
Wed 08:58:41 AM 34.1156 -80.8158 191° South 419 482 34,000 50 Climbing Jacksonville Center
Wed 08:59:41 AM 33.9992 -80.8361 188° South 429 494 34,000  Level Jacksonville Center
Wed 09:00:41 AM 33.8806 -80.8614 190° South 429 494 34,000  Level Jacksonville Center
Wed 09:01:41 AM 33.7642 -80.8814 188° South 429 494 34,000  Level Jacksonville Center
Wed 09:02:41 AM 33.6456 -80.9092 191° South 429 494 34,000  Level Jacksonville Center
Wed 09:03:41 AM 33.5269 -80.9342 190° South 434 499 34,000  Level Jacksonville Center
Wed 09:04:41 AM 33.4083 -80.9567 189° South 434 499 34,000  Level Jacksonville Center
Wed 09:05:41 AM 33.2919 -80.9792 189° South 429 494 34,000  Level Jacksonville Center
Wed 09:06:41 AM 33.1711 -81.0017 189° South 429 494 34,000  Level Jacksonville Center
Wed 09:07:41 AM 33.0525 -81.0264 190° South 429 494 34,000  Level Jacksonville Center
Wed 09:08:41 AM 32.9339 -81.0486 189° South 429 494 34,000  Level Jacksonville Center
Wed 09:09:41 AM 32.8236 -81.0706 189° South 441 507 34,000  Level Jacksonville Center
Wed 09:10:41 AM 32.7028 -81.0953 190° South 446 513 34,000  Level Jacksonville Center
Wed 09:11:41 AM 32.5736 -81.1200 189° South 439 505 34,000  Level Jacksonville Center
Wed 09:12:41 AM 32.4633 -81.1272 183° South 446 513 34,000  Level Jacksonville Center
Wed 09:13:41 AM 32.3358 -81.1272 180° South 457 526 34,000  Level Jacksonville Center
Wed 09:14:41 AM 32.2128 -81.1247 179° South 457 526 34,000  Level Jacksonville Center
Wed 09:15:41 AM 32.0917 -81.1269 181° South 457 526 34,000  Level Jacksonville Center
Wed 09:16:41 AM 31.9683 -81.1244 179° South 451 519 34,000  Level Jacksonville Center
Wed 09:17:41 AM 31.8347 -81.1222 179° South 441 507 34,000  Level Jacksonville Center
Wed 09:18:41 AM 31.7283 -81.1242 181° South 436 502 34,000  Level Jacksonville Center
Wed 09:19:41 AM 31.5947 -81.1219 179° South 436 502 34,000  Level Jacksonville Center
Wed 09:20:41 AM 31.4881 -81.1214 180° South 436 502 34,000  Level Jacksonville Center
Wed 09:21:41 AM 31.3586 -81.1214 180° South 436 502 34,000  Level Jacksonville Center
Wed 09:22:41 AM 31.2503 -81.1233 181° South 436 502 34,000  Level Jacksonville Center
Wed 09:23:41 AM 31.1292 -81.1233 180° South 436 502 34,000  Level Jacksonville Center
Wed 09:24:41 AM 31.0100 -81.1206 179° South 436 502 34,000  Level Jacksonville Center
Wed 09:25:41 AM 30.8869 -81.1206 180° South 441 507 34,000  Level Jacksonville Center
Wed 09:26:41 AM 30.7700 -81.1181 179° South 441 507 34,000  Level Jacksonville Center
Wed 09:27:41 AM 30.6489 -81.1203 181° South 441 507 34,000  Level Jacksonville Center
Wed 09:28:41 AM 30.5275 -81.1103 176° South 441 507 34,000  Level Jacksonville Center
Wed 09:29:41 AM 30.4081 -81.0814 168° South 441 507 34,000  Level Jacksonville Center
Wed 09:30:41 AM 30.2803 -81.0500 168° South 441 507 34,000 -400 Level Jacksonville Center
Wed 09:31:41 AM 30.1608 -81.0211 168° South 441 507 33,200 -1,600 Descending Jacksonville Center
Wed 09:32:41 AM 30.0394 -80.9900 167° South 441 507 30,800 -2,350 Descending Jacksonville Center
Wed 09:33:41 AM 29.9219 -80.9633 169° South 446 513 28,500 -2,250 Descending Jacksonville Center
Wed 09:34:41 AM 29.8047 -80.9347 168° South 441 507 26,300 -2,200 Descending Jacksonville Center
Wed 09:35:41 AM 29.6917 -80.9083 169° South 429 494 24,100 -2,200 Descending Jacksonville Center
Wed 09:36:41 AM 29.5847 -80.8794 167° South 416 479 21,900 -2,100 Descending Jacksonville Center
Wed 09:37:41 AM 29.4758 -80.8553 169° South 405 466 19,900 -2,000 Descending Jacksonville Center
Wed 09:38:41 AM 29.3772 -80.8289 167° South 395 455 17,900 -1,950 Descending Jacksonville Center
Wed 09:39:41 AM 29.2789 -80.8094 170° South 372 428 16,000 -1,900 Descending Jacksonville Center
Wed 09:40:41 AM 29.1825 -80.7853 168° South 366 421 14,100 -1,850 Descending Jacksonville Center
Wed 09:41:41 AM 29.0861 -80.7683 171° South 353 406 12,300 -1,100 Descending Jacksonville Center
Wed 09:42:41 AM 29.0022 -80.7511 170° South 341 392 11,900 -300 Descending Jacksonville Center
Wed 09:43:41 AM 28.9294 -80.7575 184° South 302 348 11,700 -900 Descending Jacksonville Center
Wed 09:44:41 AM 28.8483 -80.7733 190° South 302 348 10,100 -1,700 Descending Jacksonville Center
Wed 09:45:41 AM 28.7969 -80.8244 221° Southwest 262 302 8,300 -1,750 Descending Jacksonville Center
Wed 09:46:41 AM 28.7775 -80.9100 255° West 249 287 6,600 -1,200 Descending Jacksonville Center
Wed 09:47:41 AM 28.7556 -80.9908 253° West 255 293 5,900 -350 Descending Jacksonville Center
Wed 09:48:41 AM 28.7358 -81.0669 254° West 260 299 5,900 -283 Level Jacksonville Center
Wed 09:49:48 AM 28.7167 -81.1500 255° West 208 239 5,300 -844 Descending Orlando TRACON
Wed 09:50:49 AM 28.7000 -81.2167 254° West 214 246 4,100 -600 Descending Orlando TRACON
Wed 09:51:48 AM 28.6667 -81.2667 233° Southwest 217 250 4,100 -263 Level Orlando TRACON
Wed 09:52:43 AM 28.6167 -81.2833 196° South 211 243 3,600 -545 Descending Orlando TRACON

Login

Don't have an account? Register now (free) for customized features, flight alerts, and more!